Time;durP1;ratioP1;P1;durP2;ratioP2;P2;SDS_P1;SDS_P2;PMS_P1;PMS_P2;Temp;Humidity;BMP_temperature;BMP_pressure;BME280_temperature;BME280_humidity;BME280_pressure;Samples;Min_cycle;Max_cycle;Signal;HPM_P1;HPM_P2
2024/04/03 00:02:08;;;;;;;17.77;6.22;;;;;;;;;;4991393;28;20038;-77
2024/04/03 00:04:46;;;;;;;22.45;6.97;;;;;;;;;;4992059;28;20026;-77
2024/04/03 00:07:18;;;;;;;17.38;7.95;;;;;;;;;;4962400;28;20431;-77
2024/04/03 00:09:44;;;;;;;28.63;8.18;;;;;;;;;;4991313;28;20050;-76
2024/04/03 00:12:17;;;;;;;44.60;8.05;;;;;;;;;;4959963;28;20180;-77
2024/04/03 00:14:43;;;;;;;22.50;7.15;;;;;;;;;;4975637;28;20034;-77
2024/04/03 00:17:10;;;;;;;25.85;7.50;;;;;;;;;;4984527;28;20057;-76
2024/04/03 00:19:36;;;;;;;29.90;7.90;;;;;;;;;;4990690;28;20037;-77
2024/04/03 00:22:04;;;;;;;24.52;6.88;;;;;;;;;;4959154;28;20034;-76
2024/04/03 00:24:33;;;;;;;31.02;7.22;;;;;;;;;;4968275;28;20101;-77
2024/04/03 00:26:59;;;;;;;28.02;8.65;;;;;;;;;;4991410;28;20046;-78
2024/04/03 00:29:25;;;;;;;30.80;7.07;;;;;;;;;;4991369;28;20061;-76
2024/04/03 00:31:51;;;;;;;20.70;7.18;;;;;;;;;;4991074;28;20088;-76
2024/04/03 00:34:17;;;;;;;25.00;8.57;;;;;;;;;;5007629;28;20037;-76
2024/04/03 00:36:43;;;;;;;13.85;5.95;;;;;;;;;;4991709;28;20062;-77
2024/04/03 00:39:12;;;;;;;23.55;6.63;;;;;;;;;;4976151;28;20057;-76
2024/04/03 00:41:38;;;;;;;18.52;6.47;;;;;;;;;;4960265;28;20040;-77
2024/04/03 00:44:04;;;;;;;27.42;6.85;;;;;;;;;;4992097;28;20113;-78
2024/04/03 00:46:30;;;;;;;18.85;7.53;;;;;;;;;;4990099;28;20054;-78
2024/04/03 00:48:56;;;;;;;26.92;7.57;;;;;;;;;;4961045;28;20031;-77
2024/04/03 00:51:22;;;;;;;29.02;7.47;;;;;;;;;;4994343;28;20045;-79
2024/04/03 00:53:48;;;;;;;30.30;7.05;;;;;;;;;;4994327;28;20034;-76
2024/04/03 00:56:14;;;;;;;22.73;5.90;;;;;;;;;;4994720;28;20058;-78
2024/04/03 00:58:43;;;;;;;24.42;7.32;;;;;;;;;;4966990;28;20038;-77
2024/04/03 01:01:09;;;;;;;34.10;7.43;;;;;;;;;;4996642;28;20045;-77
2024/04/03 01:03:36;;;;;;;32.95;7.72;;;;;;;;;;4992221;28;20125;-78
2024/04/03 01:06:05;;;;;;;35.03;7.78;;;;;;;;;;4982312;28;20124;-78
2024/04/03 01:08:31;;;;;;;28.88;7.80;;;;;;;;;;4942674;28;20034;-78
2024/04/03 01:11:02;;;;;;;26.05;7.13;;;;;;;;;;4990462;28;20046;-76
2024/04/03 01:13:29;;;;;;;31.70;7.65;;;;;;;;;;4969325;28;20050;-78
2024/04/03 01:16:04;;;;;;;20.05;7.20;;;;;;;;;;4971542;28;20061;-78
2024/04/03 01:18:30;;;;;;;24.20;7.38;;;;;;;;;;4967713;28;20124;-77
2024/04/03 01:20:57;;;;;;;16.42;6.28;;;;;;;;;;4959269;28;20026;-78
2024/04/03 01:23:22;;;;;;;28.52;6.80;;;;;;;;;;4991130;28;20046;-79
2024/04/03 01:25:49;;;;;;;21.58;7.25;;;;;;;;;;4971675;28;20038;-78
2024/04/03 01:28:21;;;;;;;22.75;8.32;;;;;;;;;;4987467;28;20418;-78
2024/04/03 01:30:53;;;;;;;25.55;7.55;;;;;;;;;;4988754;28;20089;-78
2024/04/03 01:33:33;;;;;;;19.73;6.68;;;;;;;;;;4985410;28;20066;-76
2024/04/03 01:36:01;;;;;;;18.23;7.47;;;;;;;;;;4990133;28;20412;-78
2024/04/03 01:38:37;;;;;;;15.65;6.22;;;;;;;;;;4990363;28;20065;-77
2024/04/03 01:41:15;;;;;;;21.15;5.70;;;;;;;;;;4990860;28;20132;-79
2024/04/03 01:43:43;;;;;;;22.20;6.68;;;;;;;;;;4971902;28;20061;-78
2024/04/03 01:46:09;;;;;;;26.48;6.00;;;;;;;;;;4953598;28;20145;-77
2024/04/03 01:48:35;;;;;;;30.42;7.03;;;;;;;;;;4974196;28;20023;-79
2024/04/03 01:51:01;;;;;;;31.83;7.88;;;;;;;;;;4957430;28;20415;-77
2024/04/03 01:53:32;;;;;;;30.88;7.95;;;;;;;;;;4971914;28;20034;-78
2024/04/03 01:56:19;;;;;;;20.63;7.20;;;;;;;;;;4949763;28;20112;-77
2024/04/03 01:58:45;;;;;;;25.08;6.97;;;;;;;;;;4966247;28;20109;-79
2024/04/03 02:01:11;;;;;;;23.30;6.72;;;;;;;;;;4973998;28;20038;-77
2024/04/03 02:03:37;;;;;;;21.38;7.03;;;;;;;;;;4957076;28;20034;-78
2024/04/03 02:06:03;;;;;;;21.33;7.00;;;;;;;;;;4989056;28;20682;-78
2024/04/03 02:08:29;;;;;;;23.27;7.50;;;;;;;;;;4989385;28;20527;-78
2024/04/03 02:10:55;;;;;;;33.72;7.88;;;;;;;;;;4989606;28;20077;-78
2024/04/03 02:13:20;;;;;;;30.00;8.02;;;;;;;;;;4990414;28;20046;-76
2024/04/03 02:15:52;;;;;;;33.83;7.60;;;;;;;;;;4989565;28;20068;-78
2024/04/03 02:18:18;;;;;;;40.92;7.78;;;;;;;;;;4987602;28;20084;-78
2024/04/03 02:20:44;;;;;;;23.70;7.30;;;;;;;;;;4991262;28;20057;-77
2024/04/03 02:23:10;;;;;;;22.73;7.40;;;;;;;;;;4990006;28;20573;-77
2024/04/03 02:25:37;;;;;;;20.85;6.80;;;;;;;;;;4961053;28;20042;-77
2024/04/03 02:28:03;;;;;;;29.58;7.55;;;;;;;;;;4979479;28;20100;-76
2024/04/03 02:30:30;;;;;;;23.63;7.00;;;;;;;;;;4972359;28;20030;-77
2024/04/03 02:32:57;;;;;;;24.95;7.55;;;;;;;;;;4974002;28;20546;-77
2024/04/03 02:35:26;;;;;;;20.30;7.22;;;;;;;;;;4970435;28;20046;-77
2024/04/03 02:37:59;;;;;;;24.80;7.25;;;;;;;;;;4962152;28;20049;-78
2024/04/03 02:40:25;;;;;;;13.48;6.40;;;;;;;;;;4969079;28;20077;-78
2024/04/03 02:42:51;;;;;;;23.48;7.30;;;;;;;;;;4957650;28;20045;-78
2024/04/03 02:45:17;;;;;;;31.27;8.18;;;;;;;;;;4987394;28;20030;-77
2024/04/03 02:47:46;;;;;;;19.63;7.35;;;;;;;;;;5003194;28;20053;-77
2024/04/03 02:50:15;;;;;;;21.20;6.53;;;;;;;;;;4972574;28;20038;-78
2024/04/03 02:52:41;;;;;;;22.83;7.50;;;;;;;;;;4987971;28;20041;-78
2024/04/03 02:55:07;;;;;;;29.08;7.70;;;;;;;;;;4988237;28;20026;-78
2024/04/03 02:57:33;;;;;;;24.52;6.60;;;;;;;;;;4971903;28;20149;-77
2024/04/03 02:59:59;;;;;;;21.67;7.05;;;;;;;;;;5004578;28;20031;-78
2024/04/03 03:02:25;;;;;;;22.63;6.90;;;;;;;;;;4989448;28;20046;-77
2024/04/03 03:04:51;;;;;;;26.20;7.65;;;;;;;;;;4983950;28;20035;-73
2024/04/03 03:07:17;;;;;;;30.75;7.32;;;;;;;;;;4989470;28;20077;-76
2024/04/03 03:09:43;;;;;;;22.10;6.63;;;;;;;;;;4972842;28;20050;-76
2024/04/03 03:12:08;;;;;;;37.08;7.75;;;;;;;;;;5004200;28;20089;-78
2024/04/03 03:14:34;;;;;;;27.83;7.78;;;;;;;;;;5004827;28;20057;-77
2024/04/03 03:17:00;;;;;;;14.23;5.93;;;;;;;;;;4989186;28;20495;-76
2024/04/03 03:19:26;;;;;;;24.10;6.82;;;;;;;;;;5005502;28;20402;-76
2024/04/03 03:21:52;;;;;;;20.00;7.43;;;;;;;;;;4991416;28;20046;-76
2024/04/03 03:24:19;;;;;;;20.67;6.63;;;;;;;;;;4988101;28;20034;-77
2024/04/03 03:26:46;;;;;;;19.55;5.88;;;;;;;;;;4976693;28;20495;-76
2024/04/03 03:29:11;;;;;;;18.38;6.72;;;;;;;;;;4984260;28;20042;-76
2024/04/03 03:31:37;;;;;;;24.48;7.32;;;;;;;;;;4986510;28;20038;-75
2024/04/03 03:34:03;;;;;;;24.40;7.00;;;;;;;;;;4989326;28;20632;-76
2024/04/03 03:36:29;;;;;;;29.02;7.05;;;;;;;;;;4986175;28;20081;-76
2024/04/03 03:38:55;;;;;;;28.95;8.10;;;;;;;;;;4986714;28;20464;-77
2024/04/03 03:41:21;;;;;;;18.80;7.65;;;;;;;;;;4987701;28;20549;-76
2024/04/03 03:43:47;;;;;;;20.63;7.03;;;;;;;;;;4987388;28;20030;-76
2024/04/03 03:46:12;;;;;;;29.00;8.63;;;;;;;;;;4968371;28;20049;-76
2024/04/03 03:54:08;;;;;;;21.67;8.00;;;;;;;;;;4988955;28;20061;-77
2024/04/03 03:56:34;;;;;;;38.72;8.10;;;;;;;;;;4987209;28;20090;-78
2024/04/03 03:59:00;;;;;;;29.77;9.38;;;;;;;;;;4988305;28;20026;-77
2024/04/03 04:01:25;;;;;;;22.58;6.75;;;;;;;;;;4987404;28;20057;-77
2024/04/03 04:03:51;;;;;;;35.55;8.27;;;;;;;;;;4986870;28;20032;-77
2024/04/03 04:06:17;;;;;;;30.60;7.38;;;;;;;;;;4988322;28;20046;-77
2024/04/03 04:08:43;;;;;;;28.52;8.70;;;;;;;;;;4981851;28;20026;-77
2024/04/03 04:11:09;;;;;;;31.33;8.52;;;;;;;;;;4987766;28;20096;-77
2024/04/03 04:13:35;;;;;;;24.95;8.52;;;;;;;;;;4988928;28;20049;-77
2024/04/03 04:16:01;;;;;;;22.00;7.13;;;;;;;;;;4989266;28;20481;-77
2024/04/03 04:18:29;;;;;;;21.13;6.60;;;;;;;;;;4988821;28;20084;-76
2024/04/03 04:20:55;;;;;;;28.92;6.72;;;;;;;;;;4988116;28;20137;-77
2024/04/03 04:23:24;;;;;;;23.88;6.88;;;;;;;;;;4955389;28;20042;-75
2024/04/03 04:26:01;;;;;;;23.55;7.22;;;;;;;;;;4987806;28;20096;-77
2024/04/03 04:28:30;;;;;;;18.15;6.60;;;;;;;;;;4982953;28;20078;-77
2024/04/03 04:30:57;;;;;;;32.83;7.75;;;;;;;;;;4987917;28;20499;-78
2024/04/03 04:33:23;;;;;;;31.25;8.18;;;;;;;;;;4973583;28;20100;-76
2024/04/03 04:35:53;;;;;;;27.08;7.20;;;;;;;;;;4995257;28;20046;-80
2024/04/03 04:38:19;;;;;;;34.30;7.80;;;;;;;;;;4999136;28;20038;-81
2024/04/03 04:40:52;;;;;;;28.83;7.22;;;;;;;;;;4981521;28;20282;-80
2024/04/03 04:43:18;;;;;;;30.63;7.25;;;;;;;;;;5000933;28;20049;-79
2024/04/03 04:45:44;;;;;;;28.75;6.35;;;;;;;;;;5004404;28;20057;-80
2024/04/03 04:48:10;;;;;;;20.65;5.97;;;;;;;;;;5002188;28;20046;-80
2024/04/03 04:50:36;;;;;;;19.73;7.88;;;;;;;;;;5000669;28;20023;-80
2024/04/03 04:53:02;;;;;;;27.20;7.03;;;;;;;;;;4986318;28;20065;-74
2024/04/03 04:55:28;;;;;;;36.35;8.23;;;;;;;;;;4988158;28;20050;-73
2024/04/03 04:57:53;;;;;;;30.80;7.32;;;;;;;;;;5005615;28;20454;-74
2024/04/03 05:00:19;;;;;;;24.73;7.43;;;;;;;;;;4991724;28;20030;-73
2024/04/03 05:02:45;;;;;;;25.42;7.13;;;;;;;;;;4989060;28;20092;-74
2024/04/03 05:05:11;;;;;;;22.63;7.47;;;;;;;;;;4989464;28;20046;-74
2024/04/03 05:07:37;;;;;;;21.70;5.97;;;;;;;;;;4989083;28;20486;-75
2024/04/03 05:10:03;;;;;;;17.50;6.25;;;;;;;;;;5005189;28;20050;-74
2024/04/03 05:12:29;;;;;;;21.48;5.93;;;;;;;;;;4988322;28;20042;-74
2024/04/03 05:14:55;;;;;;;21.23;6.53;;;;;;;;;;4988303;28;20442;-74
2024/04/03 05:17:20;;;;;;;29.10;7.60;;;;;;;;;;4973065;28;20054;-74
2024/04/03 05:19:46;;;;;;;39.97;7.90;;;;;;;;;;4990053;28;20465;-74
2024/04/03 05:22:14;;;;;;;34.88;7.00;;;;;;;;;;4988718;28;20057;-74
2024/04/03 05:24:40;;;;;;;21.48;7.50;;;;;;;;;;4990107;28;20081;-75
2024/04/03 05:27:06;;;;;;;22.08;6.72;;;;;;;;;;4990882;28;20054;-75
2024/04/03 05:29:31;;;;;;;26.40;6.20;;;;;;;;;;4990102;28;20106;-74
2024/04/03 05:31:57;;;;;;;12.63;4.97;;;;;;;;;;4990010;28;20030;-73
2024/04/03 05:34:23;;;;;;;37.53;6.82;;;;;;;;;;4989112;28;20057;-75
2024/04/03 05:36:49;;;;;;;27.05;6.95;;;;;;;;;;4988197;28;20102;-76
2024/04/03 05:39:15;;;;;;;29.40;5.95;;;;;;;;;;4989481;28;20419;-78
2024/04/03 05:41:41;;;;;;;31.90;6.75;;;;;;;;;;4990977;28;20030;-77
2024/04/03 05:44:07;;;;;;;21.80;6.93;;;;;;;;;;4989665;28;20039;-77
2024/04/03 05:46:33;;;;;;;23.25;6.25;;;;;;;;;;4988891;28;20042;-76
2024/04/03 05:48:59;;;;;;;16.45;5.60;;;;;;;;;;4961611;28;20038;-75
2024/04/03 05:51:24;;;;;;;23.05;6.53;;;;;;;;;;4976384;28;20042;-76
2024/04/03 05:53:50;;;;;;;21.27;6.85;;;;;;;;;;4989521;28;20054;-80
2024/04/03 05:56:16;;;;;;;20.20;5.63;;;;;;;;;;4980750;28;20061;-76
2024/04/03 05:58:42;;;;;;;16.50;5.50;;;;;;;;;;4990837;28;20522;-77
2024/04/03 06:01:08;;;;;;;16.33;6.03;;;;;;;;;;4992425;28;20034;-81
2024/04/03 06:03:33;;;;;;;33.47;6.50;;;;;;;;;;4995437;28;20506;-81
2024/04/03 06:05:59;;;;;;;18.95;5.78;;;;;;;;;;4993646;28;20109;-80
2024/04/03 06:08:25;;;;;;;36.97;7.03;;;;;;;;;;4995674;28;20045;-80
2024/04/03 06:10:52;;;;;;;25.13;6.50;;;;;;;;;;4992474;28;20069;-79
2024/04/03 06:13:18;;;;;;;23.90;5.45;;;;;;;;;;4992523;28;20546;-78
2024/04/03 06:15:44;;;;;;;12.68;4.90;;;;;;;;;;4983172;28;20061;-79
2024/04/03 06:18:13;;;;;;;23.15;5.03;;;;;;;;;;4996680;28;20042;-84
2024/04/03 06:20:38;;;;;;;21.73;5.70;;;;;;;;;;4991095;28;20521;-77
2024/04/03 06:23:05;;;;;;;28.90;6.07;;;;;;;;;;4989484;28;20125;-75
2024/04/03 06:25:31;;;;;;;21.85;4.93;;;;;;;;;;4991488;28;20038;-80
2024/04/03 06:27:57;;;;;;;20.02;5.60;;;;;;;;;;4985716;28;20101;-77
2024/04/03 06:30:23;;;;;;;33.15;5.45;;;;;;;;;;4972240;28;20040;-77
2024/04/03 06:32:49;;;;;;;26.80;5.35;;;;;;;;;;4991552;28;20397;-80
2024/04/03 06:35:15;;;;;;;31.58;5.72;;;;;;;;;;4976328;28;20046;-79
2024/04/03 06:37:41;;;;;;;15.57;5.72;;;;;;;;;;4989902;28;20049;-80
2024/04/03 06:40:07;;;;;;;23.73;6.00;;;;;;;;;;5002963;28;20030;-78
2024/04/03 06:42:33;;;;;;;28.67;4.90;;;;;;;;;;4992917;28;20039;-81
2024/04/03 06:44:59;;;;;;;20.17;5.72;;;;;;;;;;5001109;28;20037;-81
2024/04/03 06:47:26;;;;;;;11.90;3.97;;;;;;;;;;4998253;28;20050;-80
2024/04/03 06:49:55;;;;;;;29.38;12.63;;;;;;;;;;5004940;28;20030;-82
2024/04/03 06:52:22;;;;;;;16.40;8.02;;;;;;;;;;4995960;28;20034;-79
2024/04/03 06:54:49;;;;;;;16.35;7.57;;;;;;;;;;4995761;28;20040;-81
2024/04/03 06:57:15;;;;;;;14.95;7.60;;;;;;;;;;4990508;28;20058;-81
2024/04/03 06:59:41;;;;;;;21.75;10.95;;;;;;;;;;4992628;28;20321;-80
2024/04/03 07:02:06;;;;;;;9.20;4.32;;;;;;;;;;4993615;28;20066;-81
2024/04/03 07:04:32;;;;;;;22.42;5.97;;;;;;;;;;4989950;28;20057;-78
2024/04/03 07:07:01;;;;;;;14.82;6.78;;;;;;;;;;4986877;28;20049;-79
2024/04/03 07:09:27;;;;;;;32.97;3.97;;;;;;;;;;4988919;28;20058;-77
2024/04/03 07:11:53;;;;;;;12.25;4.07;;;;;;;;;;4987257;28;20057;-75
2024/04/03 07:14:18;;;;;;;20.50;4.30;;;;;;;;;;4988111;28;20034;-74
2024/04/03 07:16:47;;;;;;;18.10;5.30;;;;;;;;;;4986989;28;20125;-75
2024/04/03 07:19:13;;;;;;;12.40;6.97;;;;;;;;;;4988362;28;20049;-77
2024/04/03 07:21:41;;;;;;;37.00;8.25;;;;;;;;;;4986209;28;20120;-77
2024/04/03 07:24:08;;;;;;;25.60;7.25;;;;;;;;;;4988662;28;20093;-76
2024/04/03 07:26:33;;;;;;;11.75;5.55;;;;;;;;;;4988317;28;20118;-78
2024/04/03 07:28:59;;;;;;;8.40;4.25;;;;;;;;;;5007195;28;20062;-78
2024/04/03 07:31:25;;;;;;;18.30;3.70;;;;;;;;;;4988694;28;20030;-79
2024/04/03 07:33:51;;;;;;;8.55;3.08;;;;;;;;;;4988098;28;20034;-77
2024/04/03 07:36:19;;;;;;;14.18;3.50;;;;;;;;;;4983785;28;20531;-79
2024/04/03 07:38:44;;;;;;;15.93;2.75;;;;;;;;;;4981183;28;20669;-80
2024/04/03 07:41:10;;;;;;;7.60;2.45;;;;;;;;;;4990529;28;20026;-79
2024/04/03 07:43:36;;;;;;;4.60;2.92;;;;;;;;;;4989397;28;20517;-79
2024/04/03 07:46:03;;;;;;;8.35;3.08;;;;;;;;;;5003157;28;20129;-76
2024/04/03 07:48:29;;;;;;;7.28;2.15;;;;;;;;;;4986910;28;20030;-77
2024/04/03 07:50:58;;;;;;;6.38;2.50;;;;;;;;;;4988541;28;20127;-77
2024/04/03 07:53:24;;;;;;;6.03;2.70;;;;;;;;;;4980240;28;20151;-76
2024/04/03 07:55:50;;;;;;;4.15;2.20;;;;;;;;;;4986925;28;20136;-77
2024/04/03 07:58:16;;;;;;;77.93;5.60;;;;;;;;;;4970787;28;20043;-76
2024/04/03 08:00:41;;;;;;;22.98;2.50;;;;;;;;;;4988149;28;20122;-76
2024/04/03 08:03:26;;;;;;;8.63;2.30;;;;;;;;;;4986732;28;20088;-76
2024/04/03 08:05:53;;;;;;;18.35;2.42;;;;;;;;;;4969083;28;20042;-77
2024/04/03 08:08:19;;;;;;;6.97;1.98;;;;;;;;;;4984469;28;20037;-77
2024/04/03 08:10:45;;;;;;;6.53;2.20;;;;;;;;;;4987233;28;20117;-77
2024/04/03 08:13:11;;;;;;;26.05;3.17;;;;;;;;;;4992706;28;20053;-79
2024/04/03 08:15:37;;;;;;;7.32;2.33;;;;;;;;;;4993292;28;20503;-78
2024/04/03 08:18:03;;;;;;;10.18;2.25;;;;;;;;;;4980252;28;20113;-77
2024/04/03 08:20:29;;;;;;;7.50;2.25;;;;;;;;;;4996503;28;20042;-75
2024/04/03 08:22:57;;;;;;;3.78;2.20;;;;;;;;;;4998558;28;20034;-77
2024/04/03 08:25:23;;;;;;;41.50;3.60;;;;;;;;;;4996192;28;20057;-75
2024/04/03 08:27:52;;;;;;;9.45;1.95;;;;;;;;;;4993481;28;20030;-75
2024/04/03 08:30:21;;;;;;;17.33;2.70;;;;;;;;;;4988344;28;20057;-75
2024/04/03 08:32:47;;;;;;;8.45;2.08;;;;;;;;;;4992929;28;20034;-76
2024/04/03 08:35:14;;;;;;;18.45;3.35;;;;;;;;;;4992081;28;20047;-78
2024/04/03 08:37:39;;;;;;;25.27;3.92;;;;;;;;;;5008124;28;20144;-78
2024/04/03 08:40:06;;;;;;;8.10;2.33;;;;;;;;;;4989307;28;20392;-78
2024/04/03 08:42:32;;;;;;;25.73;3.60;;;;;;;;;;4989497;28;20070;-77
2024/04/03 08:44:57;;;;;;;26.15;5.68;;;;;;;;;;4989756;28;20051;-76
2024/04/03 08:47:23;;;;;;;23.90;4.57;;;;;;;;;;4993193;28;20125;-74
2024/04/03 08:49:49;;;;;;;14.30;2.60;;;;;;;;;;5008703;28;20388;-75
2024/04/03 08:52:15;;;;;;;16.92;2.63;;;;;;;;;;4992034;28;20125;-75
2024/04/03 08:54:41;;;;;;;5.32;2.30;;;;;;;;;;4993084;28;20163;-76
2024/04/03 08:59:51;;;;;;;26.15;3.28;;;;;;;;;;4988264;28;20061;-75
2024/04/03 09:02:18;;;;;;;11.27;3.63;;;;;;;;;;4987885;28;20070;-77
2024/04/03 09:04:43;;;;;;;10.82;2.85;;;;;;;;;;4989018;28;20514;-76
2024/04/03 09:07:19;;;;;;;6.30;2.22;;;;;;;;;;4985230;28;20052;-75
2024/04/03 09:09:45;;;;;;;3.28;2.30;;;;;;;;;;4991913;28;20046;-74
2024/04/03 09:12:11;;;;;;;5.95;2.17;;;;;;;;;;4991831;28;20041;-75
2024/04/03 09:14:38;;;;;;;16.05;3.38;;;;;;;;;;4992178;28;20122;-75
2024/04/03 09:17:05;;;;;;;6.60;2.47;;;;;;;;;;4989855;28;20144;-75
2024/04/03 09:19:32;;;;;;;12.10;2.33;;;;;;;;;;4990873;28;20037;-75
2024/04/03 09:21:58;;;;;;;10.00;2.70;;;;;;;;;;4991883;28;20072;-75
2024/04/03 09:24:24;;;;;;;6.97;2.25;;;;;;;;;;4991875;28;20026;-75
2024/04/03 09:26:56;;;;;;;4.95;2.47;;;;;;;;;;4989584;28;20113;-76
2024/04/03 09:29:22;;;;;;;6.65;2.70;;;;;;;;;;4992058;28;20062;-75
2024/04/03 09:31:49;;;;;;;6.63;2.20;;;;;;;;;;4990528;28;20458;-74
2024/04/03 09:34:15;;;;;;;14.63;3.15;;;;;;;;;;4991615;28;20039;-74
2024/04/03 09:36:41;;;;;;;7.82;2.72;;;;;;;;;;4990581;28;20060;-75
2024/04/03 09:39:09;;;;;;;11.15;3.28;;;;;;;;;;4990409;28;20027;-74
2024/04/03 09:41:36;;;;;;;11.18;2.83;;;;;;;;;;4990649;28;20392;-75
2024/04/03 09:44:02;;;;;;;9.90;2.78;;;;;;;;;;4990784;28;20474;-79
2024/04/03 09:46:31;;;;;;;8.40;2.95;;;;;;;;;;4973357;28;20046;-76
2024/04/03 09:48:57;;;;;;;8.00;2.78;;;;;;;;;;4988865;28;20069;-75
2024/04/03 09:51:24;;;;;;;10.95;2.83;;;;;;;;;;4990325;28;20042;-73
2024/04/03 09:53:50;;;;;;;6.07;2.70;;;;;;;;;;4975691;28;20042;-74
2024/04/03 09:56:16;;;;;;;16.17;2.88;;;;;;;;;;4971216;28;20051;-75
2024/04/03 09:58:43;;;;;;;7.28;2.33;;;;;;;;;;4977831;28;20030;-76
2024/04/03 10:01:08;;;;;;;6.68;2.50;;;;;;;;;;4989866;28;20034;-76
2024/04/03 10:03:34;;;;;;;10.18;2.70;;;;;;;;;;4973934;28;20046;-76
2024/04/03 10:06:04;;;;;;;15.02;3.03;;;;;;;;;;4989877;28;20050;-75
2024/04/03 10:08:34;;;;;;;7.32;2.13;;;;;;;;;;4992210;28;20053;-76
2024/04/03 10:11:03;;;;;;;7.43;2.35;;;;;;;;;;4990842;28;20141;-75
2024/04/03 10:13:30;;;;;;;11.23;2.67;;;;;;;;;;4990806;28;20038;-76
2024/04/03 10:16:05;;;;;;;10.85;2.75;;;;;;;;;;4973565;28;20121;-75
2024/04/03 10:18:34;;;;;;;5.00;2.25;;;;;;;;;;4991842;28;20069;-77
2024/04/03 10:21:01;;;;;;;16.92;2.55;;;;;;;;;;4990439;28;20041;-76
2024/04/03 10:23:27;;;;;;;7.20;2.47;;;;;;;;;;4990573;28;20387;-76
2024/04/03 10:25:53;;;;;;;12.40;1.92;;;;;;;;;;4973461;28;20045;-76
2024/04/03 10:28:19;;;;;;;11.00;2.28;;;;;;;;;;4991831;28;20042;-77
2024/04/03 10:30:52;;;;;;;4.40;1.60;;;;;;;;;;4989698;28;20038;-76
2024/04/03 10:33:18;;;;;;;3.72;1.60;;;;;;;;;;4990528;28;20120;-76
2024/04/03 10:35:44;;;;;;;5.68;1.67;;;;;;;;;;4991188;28;20181;-75
2024/04/03 10:38:10;;;;;;;5.45;1.33;;;;;;;;;;5006627;28;20054;-76
2024/04/03 10:40:36;;;;;;;1.63;1.38;;;;;;;;;;4991628;28;20030;-76
2024/04/03 10:43:01;;;;;;;1.67;1.13;;;;;;;;;;4989970;28;20585;-76
2024/04/03 10:45:27;;;;;;;3.60;1.58;;;;;;;;;;4989348;28;20116;-75
2024/04/03 10:47:53;;;;;;;3.22;1.70;;;;;;;;;;4991265;28;20495;-75
2024/04/03 10:50:19;;;;;;;2.38;1.75;;;;;;;;;;4991357;28;20034;-76
2024/04/03 10:52:45;;;;;;;4.57;1.35;;;;;;;;;;4989767;28;20034;-76
2024/04/03 10:55:13;;;;;;;4.10;1.10;;;;;;;;;;4990253;28;20065;-75
2024/04/03 10:57:39;;;;;;;2.92;1.10;;;;;;;;;;4989839;28;20526;-76
2024/04/03 11:00:07;;;;;;;0.98;0.98;;;;;;;;;;4991097;28;20050;-75
2024/04/03 11:02:33;;;;;;;1.65;1.05;;;;;;;;;;4991130;28;20410;-76
2024/04/03 11:04:59;;;;;;;2.47;0.90;;;;;;;;;;4989072;28;20030;-76
2024/04/03 11:07:25;;;;;;;2.20;1.27;;;;;;;;;;4973620;28;20054;-75
2024/04/03 11:09:51;;;;;;;2.45;0.82;;;;;;;;;;4989577;28;20140;-76
2024/04/03 11:12:19;;;;;;;3.20;0.80;;;;;;;;;;4991184;28;20038;-77
2024/04/03 11:14:45;;;;;;;1.88;0.93;;;;;;;;;;4989949;28;20494;-75
2024/04/03 11:17:11;;;;;;;5.00;0.90;;;;;;;;;;4990140;28;20058;-76
2024/04/03 11:19:37;;;;;;;4.75;1.00;;;;;;;;;;4992122;28;20079;-77
2024/04/03 11:22:04;;;;;;;1.73;1.35;;;;;;;;;;4993228;28;20141;-75
2024/04/03 11:24:30;;;;;;;1.15;1.00;;;;;;;;;;4990358;28;20034;-78
2024/04/03 11:26:55;;;;;;;11.02;1.13;;;;;;;;;;4990171;28;20104;-76
2024/04/03 11:29:27;;;;;;;1.58;0.93;;;;;;;;;;4957439;28;20581;-75
2024/04/03 11:31:53;;;;;;;2.67;0.80;;;;;;;;;;4989525;28;20068;-76
2024/04/03 11:34:19;;;;;;;4.65;1.08;;;;;;;;;;4990876;28;20035;-77
2024/04/03 11:36:45;;;;;;;3.80;1.05;;;;;;;;;;4988656;28;20054;-76
2024/04/03 11:39:11;;;;;;;1.08;1.00;;;;;;;;;;4990523;28;20034;-76
2024/04/03 11:41:37;;;;;;;3.38;1.20;;;;;;;;;;4957326;28;20064;-76
2024/04/03 11:44:03;;;;;;;0.70;0.70;;;;;;;;;;4988718;28;20546;-75
2024/04/03 11:46:29;;;;;;;0.98;0.80;;;;;;;;;;4972763;28;20046;-76
2024/04/03 11:48:59;;;;;;;2.53;1.00;;;;;;;;;;4989581;28;20049;-76
2024/04/03 11:51:24;;;;;;;3.38;1.70;;;;;;;;;;4990881;28;20092;-75
2024/04/03 11:53:51;;;;;;;4.45;1.00;;;;;;;;;;4991336;28;20507;-77
2024/04/03 11:56:19;;;;;;;1.33;0.70;;;;;;;;;;4989697;28;20050;-76
2024/04/03 11:58:45;;;;;;;2.78;0.70;;;;;;;;;;4959700;28;20600;-76
2024/04/03 12:01:11;;;;;;;0.85;0.85;;;;;;;;;;4994527;28;20124;-76
2024/04/03 12:03:37;;;;;;;5.68;1.10;;;;;;;;;;4981801;28;20073;-77
2024/04/03 12:06:04;;;;;;;0.90;0.90;;;;;;;;;;4990986;28;20050;-77
2024/04/03 12:08:32;;;;;;;0.65;0.65;;;;;;;;;;4991293;28;20073;-76
2024/04/03 12:10:58;;;;;;;2.22;1.10;;;;;;;;;;4989631;28;20058;-76
2024/04/03 12:13:24;;;;;;;1.23;1.08;;;;;;;;;;4973410;28;20043;-74
2024/04/03 12:15:50;;;;;;;0.90;0.90;;;;;;;;;;4989875;28;20030;-75
2024/04/03 12:18:24;;;;;;;4.15;1.45;;;;;;;;;;4989260;28;20507;-75
2024/04/03 12:20:51;;;;;;;3.70;0.90;;;;;;;;;;4990331;28;20038;-75
2024/04/03 12:23:17;;;;;;;2.08;0.80;;;;;;;;;;4990555;28;20089;-75
2024/04/03 12:25:43;;;;;;;4.38;0.80;;;;;;;;;;4981231;28;20542;-74
2024/04/03 12:28:10;;;;;;;1.98;0.80;;;;;;;;;;4988872;28;20483;-75
2024/04/03 12:30:35;;;;;;;1.45;0.82;;;;;;;;;;4990310;28;20038;-76
2024/04/03 12:33:01;;;;;;;1.60;0.82;;;;;;;;;;4989023;28;20032;-75
2024/04/03 12:35:29;;;;;;;2.60;1.08;;;;;;;;;;4988195;28;20038;-75
2024/04/03 12:37:58;;;;;;;1.20;0.80;;;;;;;;;;4988719;28;20056;-76
2024/04/03 12:40:24;;;;;;;0.90;0.90;;;;;;;;;;4988743;28;20165;-74
2024/04/03 12:42:50;;;;;;;1.20;0.80;;;;;;;;;;4990020;28;20030;-75
2024/04/03 12:45:16;;;;;;;1.45;1.30;;;;;;;;;;4987897;28;20049;-76
2024/04/03 12:47:43;;;;;;;1.05;1.05;;;;;;;;;;4990292;28;20026;-75
2024/04/03 12:50:09;;;;;;;2.03;0.98;;;;;;;;;;4988526;28;20039;-76
2024/04/03 12:52:35;;;;;;;4.45;1.25;;;;;;;;;;4989969;28;20037;-75
2024/04/03 12:55:01;;;;;;;2.60;0.80;;;;;;;;;;4991014;28;20042;-74
2024/04/03 12:57:29;;;;;;;3.83;1.05;;;;;;;;;;4992159;28;20542;-75
2024/04/03 12:59:55;;;;;;;0.70;0.70;;;;;;;;;;4992966;28;20121;-77
2024/04/03 13:02:21;;;;;;;4.25;1.00;;;;;;;;;;4976704;28;20038;-75
2024/04/03 13:04:47;;;;;;;2.42;1.02;;;;;;;;;;4992119;28;20034;-75
2024/04/03 13:07:13;;;;;;;1.38;1.00;;;;;;;;;;4990811;28;20050;-75
2024/04/03 13:09:39;;;;;;;1.70;1.00;;;;;;;;;;4991969;28;20051;-75
2024/04/03 13:12:05;;;;;;;1.30;1.20;;;;;;;;;;4959447;28;20041;-74
2024/04/03 13:14:31;;;;;;;4.60;1.10;;;;;;;;;;4991905;28;20031;-75
2024/04/03 13:16:57;;;;;;;0.80;0.80;;;;;;;;;;4992157;28;20061;-75
2024/04/03 13:19:23;;;;;;;3.13;0.80;;;;;;;;;;4991807;28;20053;-73
2024/04/03 13:21:49;;;;;;;1.50;0.90;;;;;;;;;;4991508;28;20483;-74
2024/04/03 13:24:15;;;;;;;1.50;1.00;;;;;;;;;;4991399;28;20042;-74
2024/04/03 13:26:41;;;;;;;0.80;0.80;;;;;;;;;;4992096;28;20049;-75
2024/04/03 13:29:07;;;;;;;1.35;0.98;;;;;;;;;;4991390;28;20113;-75
2024/04/03 13:31:51;;;;;;;0.70;0.70;;;;;;;;;;4992082;28;20046;-75
2024/04/03 13:34:18;;;;;;;1.83;0.80;;;;;;;;;;4992470;28;20045;-75
2024/04/03 13:36:44;;;;;;;2.53;0.77;;;;;;;;;;4990670;28;20066;-74
2024/04/03 13:39:11;;;;;;;1.05;0.90;;;;;;;;;;4991069;28;20053;-76
2024/04/03 13:41:37;;;;;;;0.88;0.88;;;;;;;;;;4991583;28;20633;-75
2024/04/03 13:44:03;;;;;;;0.70;0.70;;;;;;;;;;4991225;28;20141;-75
2024/04/03 13:46:29;;;;;;;1.42;0.90;;;;;;;;;;4991981;28;20046;-75
2024/04/03 13:48:55;;;;;;;0.95;0.95;;;;;;;;;;4991277;28;20411;-75
2024/04/03 13:51:21;;;;;;;1.70;0.98;;;;;;;;;;4992581;28;20038;-75
2024/04/03 13:53:46;;;;;;;2.10;1.15;;;;;;;;;;4992831;28;20042;-75
2024/04/03 13:56:14;;;;;;;0.98;0.98;;;;;;;;;;4973785;28;20097;-75
2024/04/03 13:58:41;;;;;;;3.22;1.00;;;;;;;;;;4993367;28;20052;-75
2024/04/03 14:01:07;;;;;;;1.85;1.23;;;;;;;;;;4993121;28;20038;-75
2024/04/03 14:03:33;;;;;;;3.75;1.08;;;;;;;;;;4992806;28;20123;-75
2024/04/03 14:06:05;;;;;;;1.10;1.08;;;;;;;;;;4990297;28;20073;-75
2024/04/03 14:08:31;;;;;;;1.55;1.20;;;;;;;;;;4976121;28;20121;-75
2024/04/03 14:10:58;;;;;;;1.13;1.13;;;;;;;;;;4992887;28;20050;-76
2024/04/03 14:13:24;;;;;;;1.55;1.35;;;;;;;;;;4992762;28;20042;-74
2024/04/03 14:15:50;;;;;;;1.38;1.23;;;;;;;;;;4990379;28;20038;-75
2024/04/03 14:18:19;;;;;;;0.90;0.90;;;;;;;;;;4990613;28;20050;-75
2024/04/03 14:20:45;;;;;;;1.08;1.00;;;;;;;;;;4992283;28;20088;-74
2024/04/03 14:23:11;;;;;;;1.05;1.05;;;;;;;;;;4991740;28;20070;-75
2024/04/03 14:25:42;;;;;;;1.08;1.08;;;;;;;;;;4989824;28;20053;-75
2024/04/03 14:28:08;;;;;;;;;;;;;;;;;;4992103;28;20486;-75
2024/04/03 14:30:36;;;;;;;1.77;1.67;;;;;;;;;;4990772;28;20012;-76
2024/04/03 14:33:02;;;;;;;1.27;1.27;;;;;;;;;;4991706;28;20041;-76
2024/04/03 14:35:28;;;;;;;1.10;1.10;;;;;;;;;;4989758;28;20042;-76
2024/04/03 14:37:57;;;;;;;1.00;1.00;;;;;;;;;;4990549;28;20502;-75
2024/04/03 14:40:25;;;;;;;1.13;1.13;;;;;;;;;;4990121;28;20088;-75
2024/04/03 14:42:51;;;;;;;0.80;0.80;;;;;;;;;;4990441;28;20038;-75